sensor_id;sensor_type;location;lat;lon;timestamp;pressure;altitude;pressure_sealevel;temperature;humidity
64679;BME280;51094;53.864;27.676;2023-08-12T00:01:45;99537.84;;;16.63;74.83
64679;BME280;51094;53.864;27.676;2023-08-12T00:04:12;99631.38;;;17.22;74.96
64679;BME280;51094;53.864;27.676;2023-08-12T00:06:42;99593.81;;;16.93;75.39
64679;BME280;51094;53.864;27.676;2023-08-12T00:09:09;99614.53;;;17.15;75.53
64679;BME280;51094;53.864;27.676;2023-08-12T00:11:41;99632.63;;;17.28;75.53
64679;BME280;51094;53.864;27.676;2023-08-12T00:14:08;99636.06;;;17.28;75.19
64679;BME280;51094;53.864;27.676;2023-08-12T00:16:36;99630.97;;;17.27;75.85
64679;BME280;51094;53.864;27.676;2023-08-12T00:19:03;99636.22;;;17.27;75.73
64679;BME280;51094;53.864;27.676;2023-08-12T00:21:30;99610.66;;;17.10;75.80
64679;BME280;51094;53.864;27.676;2023-08-12T00:23:57;99586.63;;;16.95;75.70
64679;BME280;51094;53.864;27.676;2023-08-12T00:26:24;99374.41;;;15.67;75.90
64679;BME280;51094;53.864;27.676;2023-08-12T00:28:50;99511.47;;;16.55;75.90
64679;BME280;51094;53.864;27.676;2023-08-12T00:31:18;99642.59;;;17.24;76.08
64679;BME280;51094;53.864;27.676;2023-08-12T00:33:46;99635.66;;;17.23;75.98
64679;BME280;51094;53.864;27.676;2023-08-12T00:36:13;99589.38;;;16.93;75.87
64679;BME280;51094;53.864;27.676;2023-08-12T00:38:39;99513.28;;;16.45;76.17
64679;BME280;51094;53.864;27.676;2023-08-12T00:41:06;99635.25;;;17.18;76.34
64679;BME280;51094;53.864;27.676;2023-08-12T00:43:33;99625.47;;;17.01;76.60
64679;BME280;51094;53.864;27.676;2023-08-12T00:46:00;99637.34;;;17.05;76.57
64679;BME280;51094;53.864;27.676;2023-08-12T00:48:27;99578.91;;;16.65;76.64
64679;BME280;51094;53.864;27.676;2023-08-12T00:50:54;99559.69;;;16.54;76.58
64679;BME280;51094;53.864;27.676;2023-08-12T00:53:21;99631.69;;;17.00;77.08
64679;BME280;51094;53.864;27.676;2023-08-12T00:55:48;99599.66;;;16.77;77.06
64679;BME280;51094;53.864;27.676;2023-08-12T00:58:15;99629.75;;;17.02;77.12
64679;BME280;51094;53.864;27.676;2023-08-12T01:00:42;99604.59;;;16.90;77.29
64679;BME280;51094;53.864;27.676;2023-08-12T01:03:09;99520.34;;;16.35;77.19
64679;BME280;51094;53.864;27.676;2023-08-12T01:05:36;99549.22;;;16.45;77.13
64679;BME280;51094;53.864;27.676;2023-08-12T01:08:09;99621.34;;;16.89;77.47
64679;BME280;51094;53.864;27.676;2023-08-12T01:10:37;99537.88;;;16.35;77.45
64679;BME280;51094;53.864;27.676;2023-08-12T01:15:50;99596.97;;;16.48;78.02
64679;BME280;51094;53.864;27.676;2023-08-12T01:18:20;99585.50;;;16.49;77.72
64679;BME280;51094;53.864;27.676;2023-08-12T01:20:48;99617.34;;;16.75;78.09
64679;BME280;51094;53.864;27.676;2023-08-12T01:23:15;99557.63;;;16.39;78.15
64679;BME280;51094;53.864;27.676;2023-08-12T01:25:43;99584.69;;;16.58;78.38
64679;BME280;51094;53.864;27.676;2023-08-12T01:28:10;99544.50;;;16.29;77.97
64679;BME280;51094;53.864;27.676;2023-08-12T01:30:48;99622.03;;;16.72;78.61
64679;BME280;51094;53.864;27.676;2023-08-12T01:33:22;99555.16;;;16.37;78.57
64679;BME280;51094;53.864;27.676;2023-08-12T01:36:00;99622.84;;;16.62;78.56
64679;BME280;51094;53.864;27.676;2023-08-12T01:38:33;99594.69;;;16.65;78.79
64679;BME280;51094;53.864;27.676;2023-08-12T01:41:02;99582.75;;;16.51;78.42
64679;BME280;51094;53.864;27.676;2023-08-12T01:43:30;99548.50;;;16.33;78.88
64679;BME280;51094;53.864;27.676;2023-08-12T01:45:58;99574.75;;;16.52;78.57
64679;BME280;51094;53.864;27.676;2023-08-12T01:48:25;99598.38;;;16.62;78.49
64679;BME280;51094;53.864;27.676;2023-08-12T01:50:51;99594.09;;;16.61;78.71
64679;BME280;51094;53.864;27.676;2023-08-12T01:53:19;99573.34;;;16.48;78.85
64679;BME280;51094;53.864;27.676;2023-08-12T01:55:45;99596.84;;;16.59;78.87
64679;BME280;51094;53.864;27.676;2023-08-12T01:58:12;99498.09;;;16.01;79.12
64679;BME280;51094;53.864;27.676;2023-08-12T02:00:39;99540.75;;;16.12;78.93
64679;BME280;51094;53.864;27.676;2023-08-12T02:03:06;99325.00;;;14.74;78.59
64679;BME280;51094;53.864;27.676;2023-08-12T02:05:34;99413.47;;;15.20;78.94
64679;BME280;51094;53.864;27.676;2023-08-12T02:08:00;99580.53;;;16.27;79.02
64679;BME280;51094;53.864;27.676;2023-08-12T02:10:27;99549.03;;;15.98;79.20
64679;BME280;51094;53.864;27.676;2023-08-12T02:12:54;99608.03;;;16.33;79.19
64679;BME280;51094;53.864;27.676;2023-08-12T02:15:21;99428.38;;;15.19;79.36
64679;BME280;51094;53.864;27.676;2023-08-12T02:17:48;99560.06;;;16.11;79.50
64679;BME280;51094;53.864;27.676;2023-08-12T02:20:17;99486.31;;;15.66;79.20
64679;BME280;51094;53.864;27.676;2023-08-12T02:22:45;99588.00;;;16.22;79.68
64679;BME280;51094;53.864;27.676;2023-08-12T02:25:12;99612.75;;;16.39;79.77
64679;BME280;51094;53.864;27.676;2023-08-12T02:27:39;99613.44;;;16.41;79.46
64679;BME280;51094;53.864;27.676;2023-08-12T02:30:06;99547.09;;;15.90;79.19
64679;BME280;51094;53.864;27.676;2023-08-12T02:32:33;99590.06;;;16.28;79.62
64679;BME280;51094;53.864;27.676;2023-08-12T02:35:00;99613.72;;;16.38;79.17
64679;BME280;51094;53.864;27.676;2023-08-12T02:37:29;99612.19;;;16.35;79.59
64679;BME280;51094;53.864;27.676;2023-08-12T02:39:56;99614.53;;;16.38;79.60
64679;BME280;51094;53.864;27.676;2023-08-12T02:42:22;99540.34;;;15.98;79.34
64679;BME280;51094;53.864;27.676;2023-08-12T02:44:49;99579.44;;;16.20;79.76
64679;BME280;51094;53.864;27.676;2023-08-12T02:47:16;99586.63;;;16.27;79.36
64679;BME280;51094;53.864;27.676;2023-08-12T02:49:43;99539.66;;;15.95;79.34
64679;BME280;51094;53.864;27.676;2023-08-12T02:52:10;99584.69;;;16.20;79.09
64679;BME280;51094;53.864;27.676;2023-08-12T02:54:37;99481.00;;;15.47;78.74
64679;BME280;51094;53.864;27.676;2023-08-12T02:57:03;99572.91;;;16.05;79.17
64679;BME280;51094;53.864;27.676;2023-08-12T02:59:30;99603.47;;;16.25;79.27
64679;BME280;51094;53.864;27.676;2023-08-12T03:01:58;99524.56;;;15.78;79.22
64679;BME280;51094;53.864;27.676;2023-08-12T03:04:26;99559.25;;;16.01;78.94
64679;BME280;51094;53.864;27.676;2023-08-12T03:06:53;99447.31;;;15.32;78.81
64679;BME280;51094;53.864;27.676;2023-08-12T03:09:20;99605.69;;;16.29;79.25
64679;BME280;51094;53.864;27.676;2023-08-12T03:11:48;99587.69;;;16.15;78.90
64679;BME280;51094;53.864;27.676;2023-08-12T03:14:15;99541.25;;;15.77;78.93
64679;BME280;51094;53.864;27.676;2023-08-12T03:16:42;99476.75;;;15.55;78.86
64679;BME280;51094;53.864;27.676;2023-08-12T03:19:09;99550.97;;;15.96;78.65
64679;BME280;51094;53.864;27.676;2023-08-12T03:21:36;99611.50;;;16.33;78.62
64679;BME280;51094;53.864;27.676;2023-08-12T03:24:03;99602.34;;;16.18;78.46
64679;BME280;51094;53.864;27.676;2023-08-12T03:26:30;99618.09;;;16.27;78.32
64679;BME280;51094;53.864;27.676;2023-08-12T03:28:58;99584.91;;;16.07;78.63
64679;BME280;51094;53.864;27.676;2023-08-12T03:31:26;99616.84;;;16.22;78.76
64679;BME280;51094;53.864;27.676;2023-08-12T03:33:53;99613.28;;;16.23;78.62
64679;BME280;51094;53.864;27.676;2023-08-12T03:36:20;99521.91;;;15.69;78.49
64679;BME280;51094;53.864;27.676;2023-08-12T03:38:47;99584.53;;;16.02;78.76
64679;BME280;51094;53.864;27.676;2023-08-12T03:41:19;99607.34;;;16.30;78.49
64679;BME280;51094;53.864;27.676;2023-08-12T03:43:46;99575.53;;;16.05;78.55
64679;BME280;51094;53.864;27.676;2023-08-12T03:46:13;99609.28;;;16.28;78.66
64679;BME280;51094;53.864;27.676;2023-08-12T03:48:40;99604.72;;;16.30;78.40
64679;BME280;51094;53.864;27.676;2023-08-12T03:51:07;99605.69;;;16.39;78.70
64679;BME280;51094;53.864;27.676;2023-08-12T03:53:34;99608.75;;;16.44;78.38
64679;BME280;51094;53.864;27.676;2023-08-12T03:56:01;99561.47;;;16.15;78.17
64679;BME280;51094;53.864;27.676;2023-08-12T03:58:29;99607.22;;;16.42;78.06
64679;BME280;51094;53.864;27.676;2023-08-12T04:00:57;99588.97;;;16.30;78.21
64679;BME280;51094;53.864;27.676;2023-08-12T04:03:24;99611.22;;;16.46;78.32
64679;BME280;51094;53.864;27.676;2023-08-12T04:05:52;99613.41;;;16.50;78.20
64679;BME280;51094;53.864;27.676;2023-08-12T04:08:23;99596.88;;;16.40;77.93
64679;BME280;51094;53.864;27.676;2023-08-12T04:10:51;99613.72;;;16.57;77.94
64679;BME280;51094;53.864;27.676;2023-08-12T04:13:18;99581.66;;;16.44;77.97
64679;BME280;51094;53.864;27.676;2023-08-12T04:15:50;99611.34;;;16.63;77.74
64679;BME280;51094;53.864;27.676;2023-08-12T04:18:17;99570.19;;;16.35;77.71
64679;BME280;51094;53.864;27.676;2023-08-12T04:20:46;99608.91;;;16.72;77.62
64679;BME280;51094;53.864;27.676;2023-08-12T04:23:16;99608.22;;;16.79;77.44
64679;BME280;51094;53.864;27.676;2023-08-12T04:25:44;99592.06;;;16.74;77.63
64679;BME280;51094;53.864;27.676;2023-08-12T04:28:13;99598.53;;;16.80;77.19
64679;BME280;51094;53.864;27.676;2023-08-12T04:30:44;99591.91;;;16.76;77.24
64679;BME280;51094;53.864;27.676;2023-08-12T04:33:14;99571.88;;;16.65;77.02
64679;BME280;51094;53.864;27.676;2023-08-12T04:35:41;99577.94;;;16.75;77.38
64679;BME280;51094;53.864;27.676;2023-08-12T04:38:09;99578.22;;;16.72;76.92
64679;BME280;51094;53.864;27.676;2023-08-12T04:40:41;99595.75;;;16.91;76.82
64679;BME280;51094;53.864;27.676;2023-08-12T04:43:09;99579.19;;;16.81;76.73
64679;BME280;51094;53.864;27.676;2023-08-12T04:45:37;99595.47;;;16.94;76.57
64679;BME280;51094;53.864;27.676;2023-08-12T04:48:06;99484.56;;;16.34;76.63
64679;BME280;51094;53.864;27.676;2023-08-12T04:50:35;99588.13;;;17.07;76.69
64679;BME280;51094;53.864;27.676;2023-08-12T04:53:02;99598.75;;;17.15;76.65
64679;BME280;51094;53.864;27.676;2023-08-12T04:55:30;99598.75;;;17.25;76.67
64679;BME280;51094;53.864;27.676;2023-08-12T04:57:58;99524.69;;;16.92;76.41
64679;BME280;51094;53.864;27.676;2023-08-12T05:00:25;99572.72;;;17.32;76.21
64679;BME280;51094;53.864;27.676;2023-08-12T05:02:56;99501.78;;;16.85;76.60
64679;BME280;51094;53.864;27.676;2023-08-12T05:05:25;99508.34;;;17.08;76.02
64679;BME280;51094;53.864;27.676;2023-08-12T05:07:52;99530.06;;;17.38;75.64
64679;BME280;51094;53.864;27.676;2023-08-12T05:10:19;99527.97;;;17.41;74.83
64679;BME280;51094;53.864;27.676;2023-08-12T05:12:46;99582.41;;;17.68;74.75
64679;BME280;51094;53.864;27.676;2023-08-12T05:15:15;99500.53;;;17.26;74.66
64679;BME280;51094;53.864;27.676;2023-08-12T05:17:42;99528.13;;;17.40;74.56
64679;BME280;51094;53.864;27.676;2023-08-12T05:20:11;99581.22;;;17.80;74.88
64679;BME280;51094;53.864;27.676;2023-08-12T05:22:38;99585.91;;;17.86;74.81
64679;BME280;51094;53.864;27.676;2023-08-12T05:25:05;99580.59;;;17.96;74.72
64679;BME280;51094;53.864;27.676;2023-08-12T05:27:32;99531.88;;;17.74;74.53
64679;BME280;51094;53.864;27.676;2023-08-12T05:29:59;99572.47;;;17.89;73.98
64679;BME280;51094;53.864;27.676;2023-08-12T05:32:26;99584.91;;;18.15;74.27
64679;BME280;51094;53.864;27.676;2023-08-12T05:34:53;99544.44;;;17.98;74.04
64679;BME280;51094;53.864;27.676;2023-08-12T05:37:20;99572.13;;;18.20;73.67
64679;BME280;51094;53.864;27.676;2023-08-12T05:39:46;99580.09;;;18.28;73.95
64679;BME280;51094;53.864;27.676;2023-08-12T05:42:13;99582.91;;;18.44;73.79
64679;BME280;51094;53.864;27.676;2023-08-12T05:44:41;99577.00;;;18.60;73.65
64679;BME280;51094;53.864;27.676;2023-08-12T05:47:12;99575.13;;;18.78;73.33
64679;BME280;51094;53.864;27.676;2023-08-12T05:49:40;99556.47;;;18.89;72.91
64679;BME280;51094;53.864;27.676;2023-08-12T05:52:08;99563.97;;;19.02;72.77
64679;BME280;51094;53.864;27.676;2023-08-12T05:54:35;99540.50;;;18.91;71.75
64679;BME280;51094;53.864;27.676;2023-08-12T05:57:02;99574.91;;;19.15;71.85
64679;BME280;51094;53.864;27.676;2023-08-12T05:59:29;99562.75;;;19.22;71.21
64679;BME280;51094;53.864;27.676;2023-08-12T06:01:56;99558.03;;;19.34;70.65
64679;BME280;51094;53.864;27.676;2023-08-12T06:04:23;99474.50;;;18.75;70.37
64679;BME280;51094;53.864;27.676;2023-08-12T06:06:50;99472.56;;;19.03;70.31
64679;BME280;51094;53.864;27.676;2023-08-12T06:09:17;99467.94;;;19.05;69.07
64679;BME280;51094;53.864;27.676;2023-08-12T06:11:45;99523.50;;;19.45;69.19
64679;BME280;51094;53.864;27.676;2023-08-12T06:14:12;99503.88;;;19.48;68.72
64679;BME280;51094;53.864;27.676;2023-08-12T06:16:39;99554.34;;;19.87;67.27
64679;BME280;51094;53.864;27.676;2023-08-12T06:19:05;99547.25;;;19.87;67.52
64679;BME280;51094;53.864;27.676;2023-08-12T06:21:32;99542.28;;;19.84;67.13
64679;BME280;51094;53.864;27.676;2023-08-12T06:23:59;99510.91;;;19.73;66.48
64679;BME280;51094;53.864;27.676;2023-08-12T06:26:26;99293.91;;;18.38;66.87
64679;BME280;51094;53.864;27.676;2023-08-12T06:28:53;99542.53;;;20.23;66.79
64679;BME280;51094;53.864;27.676;2023-08-12T06:31:20;99514.47;;;20.22;66.37
64679;BME280;51094;53.864;27.676;2023-08-12T06:33:47;99536.78;;;20.52;65.51
64679;BME280;51094;53.864;27.676;2023-08-12T06:36:13;99541.41;;;20.58;63.40
64679;BME280;51094;53.864;27.676;2023-08-12T06:38:40;99522.09;;;20.42;64.11
64679;BME280;51094;53.864;27.676;2023-08-12T06:41:07;99522.41;;;20.31;62.56
64679;BME280;51094;53.864;27.676;2023-08-12T06:43:34;99532.81;;;20.48;64.16
64679;BME280;51094;53.864;27.676;2023-08-12T06:46:01;99517.78;;;20.41;64.02
64679;BME280;51094;53.864;27.676;2023-08-12T06:48:29;99541.72;;;20.80;63.80
64679;BME280;51094;53.864;27.676;2023-08-12T06:50:56;99544.03;;;20.91;63.97
64679;BME280;51094;53.864;27.676;2023-08-12T06:53:25;99460.34;;;20.35;62.36
64679;BME280;51094;53.864;27.676;2023-08-12T06:55:52;99548.97;;;20.94;63.15
64679;BME280;51094;53.864;27.676;2023-08-12T06:58:19;99462.50;;;20.55;63.38
64679;BME280;51094;53.864;27.676;2023-08-12T07:00:46;99477.94;;;20.83;61.77
64679;BME280;51094;53.864;27.676;2023-08-12T07:03:13;99543.44;;;21.36;62.02
64679;BME280;51094;53.864;27.676;2023-08-12T07:05:40;99439.31;;;20.82;61.39
64679;BME280;51094;53.864;27.676;2023-08-12T07:08:07;99456.25;;;21.04;61.09
64679;BME280;51094;53.864;27.676;2023-08-12T07:10:34;99535.25;;;21.62;60.76
64679;BME280;51094;53.864;27.676;2023-08-12T07:13:00;99368.16;;;20.72;60.36
64679;BME280;51094;53.864;27.676;2023-08-12T07:15:27;99547.97;;;21.98;59.74
64679;BME280;51094;53.864;27.676;2023-08-12T07:17:54;99554.91;;;22.07;58.85
64679;BME280;51094;53.864;27.676;2023-08-12T07:20:21;99535.06;;;22.03;58.53
64679;BME280;51094;53.864;27.676;2023-08-12T07:22:48;99545.22;;;22.14;56.95
64679;BME280;51094;53.864;27.676;2023-08-12T07:25:15;99414.63;;;21.45;56.91
64679;BME280;51094;53.864;27.676;2023-08-12T07:27:42;99527.94;;;22.26;56.86
64679;BME280;51094;53.864;27.676;2023-08-12T07:30:09;99532.38;;;22.34;56.45
64679;BME280;51094;53.864;27.676;2023-08-12T07:32:37;99546.69;;;22.47;55.91
64679;BME280;51094;53.864;27.676;2023-08-12T07:35:05;99478.13;;;22.07;54.95
64679;BME280;51094;53.864;27.676;2023-08-12T07:37:32;99540.19;;;22.50;55.46
64679;BME280;51094;53.864;27.676;2023-08-12T07:39:59;99470.16;;;22.07;55.58
64679;BME280;51094;53.864;27.676;2023-08-12T07:42:26;99546.88;;;22.61;54.66
64679;BME280;51094;53.864;27.676;2023-08-12T07:44:53;99544.16;;;22.69;55.02
64679;BME280;51094;53.864;27.676;2023-08-12T07:47:20;99535.38;;;22.68;54.00
64679;BME280;51094;53.864;27.676;2023-08-12T07:49:47;99529.69;;;22.56;54.13
64679;BME280;51094;53.864;27.676;2023-08-12T07:52:13;99478.63;;;22.02;52.13
64679;BME280;51094;53.864;27.676;2023-08-12T07:54:40;99553.38;;;22.35;53.51
64679;BME280;51094;53.864;27.676;2023-08-12T07:57:07;99489.06;;;21.96;54.17
64679;BME280;51094;53.864;27.676;2023-08-12T07:59:34;99545.19;;;22.45;53.74
64679;BME280;51094;53.864;27.676;2023-08-12T08:02:01;99504.69;;;22.36;53.52
64679;BME280;51094;53.864;27.676;2023-08-12T08:04:28;99470.38;;;22.20;53.81
64679;BME280;51094;53.864;27.676;2023-08-12T08:06:55;99539.75;;;22.84;54.04
64679;BME280;51094;53.864;27.676;2023-08-12T08:09:22;99518.53;;;22.84;52.19
64679;BME280;51094;53.864;27.676;2023-08-12T08:11:49;99461.88;;;22.47;53.73
64679;BME280;51094;53.864;27.676;2023-08-12T08:14:16;99533.63;;;22.98;53.20
64679;BME280;51094;53.864;27.676;2023-08-12T08:16:43;99529.31;;;22.97;52.52
64679;BME280;51094;53.864;27.676;2023-08-12T08:19:10;99521.31;;;22.91;51.43
64679;BME280;51094;53.864;27.676;2023-08-12T08:21:39;99540.78;;;23.12;51.56
64679;BME280;51094;53.864;27.676;2023-08-12T08:24:06;99513.06;;;23.00;51.29
64679;BME280;51094;53.864;27.676;2023-08-12T08:26:35;99522.13;;;23.20;50.75
64679;BME280;51094;53.864;27.676;2023-08-12T08:29:02;99465.44;;;22.92;51.79
64679;BME280;51094;53.864;27.676;2023-08-12T08:31:29;99484.53;;;23.17;51.79
64679;BME280;51094;53.864;27.676;2023-08-12T08:33:56;99479.69;;;23.06;50.20
64679;BME280;51094;53.864;27.676;2023-08-12T08:36:23;99529.06;;;23.51;50.48
64679;BME280;51094;53.864;27.676;2023-08-12T08:38:50;99527.63;;;23.63;51.70
64679;BME280;51094;53.864;27.676;2023-08-12T08:41:17;99535.84;;;23.68;50.05
64679;BME280;51094;53.864;27.676;2023-08-12T08:43:47;99495.13;;;23.61;50.02
64679;BME280;51094;53.864;27.676;2023-08-12T08:46:15;99511.34;;;23.87;50.54
64679;BME280;51094;53.864;27.676;2023-08-12T08:48:43;99451.44;;;23.49;48.89
64679;BME280;51094;53.864;27.676;2023-08-12T08:51:11;99521.19;;;23.72;49.58
64679;BME280;51094;53.864;27.676;2023-08-12T08:53:39;99509.84;;;23.49;49.67
64679;BME280;51094;53.864;27.676;2023-08-12T08:56:11;99519.66;;;23.63;48.59
64679;BME280;51094;53.864;27.676;2023-08-12T08:58:41;99524.03;;;23.71;49.42
64679;BME280;51094;53.864;27.676;2023-08-12T09:01:08;99473.78;;;23.40;48.95
64679;BME280;51094;53.864;27.676;2023-08-12T09:03:37;99515.25;;;23.41;48.21
64679;BME280;51094;53.864;27.676;2023-08-12T09:06:05;99501.69;;;23.50;49.65
64679;BME280;51094;53.864;27.676;2023-08-12T09:08:33;99493.28;;;23.62;49.76
64679;BME280;51094;53.864;27.676;2023-08-12T09:11:02;99468.63;;;23.82;49.58
64679;BME280;51094;53.864;27.676;2023-08-12T09:13:29;99469.25;;;24.06;49.44
64679;BME280;51094;53.864;27.676;2023-08-12T09:15:56;99504.25;;;24.31;48.82
64679;BME280;51094;53.864;27.676;2023-08-12T09:18:23;99442.56;;;24.14;47.89
64679;BME280;51094;53.864;27.676;2023-08-12T09:20:51;99498.19;;;24.65;47.53
64679;BME280;51094;53.864;27.676;2023-08-12T09:23:18;99413.44;;;24.27;46.93
64679;BME280;51094;53.864;27.676;2023-08-12T09:25:45;99398.31;;;24.28;46.92
64679;BME280;51094;53.864;27.676;2023-08-12T09:28:12;99490.97;;;25.14;47.40
64679;BME280;51094;53.864;27.676;2023-08-12T09:30:40;99399.75;;;24.93;45.15
64679;BME280;51094;53.864;27.676;2023-08-12T09:33:08;99484.56;;;25.43;45.61
64679;BME280;51094;53.864;27.676;2023-08-12T09:35:39;99490.31;;;25.47;45.85
64679;BME280;51094;53.864;27.676;2023-08-12T09:38:10;99421.41;;;24.83;43.35
64679;BME280;51094;53.864;27.676;2023-08-12T09:40:38;99486.72;;;25.27;44.56
64679;BME280;51094;53.864;27.676;2023-08-12T09:43:05;99337.94;;;24.15;43.71
64679;BME280;51094;53.864;27.676;2023-08-12T09:45:34;99461.97;;;25.26;43.16
64679;BME280;51094;53.864;27.676;2023-08-12T09:48:01;99478.66;;;25.48;44.16
64679;BME280;51094;53.864;27.676;2023-08-12T09:50:28;99473.25;;;25.82;44.79
64679;BME280;51094;53.864;27.676;2023-08-12T09:52:55;99438.84;;;25.88;44.36
64679;BME280;51094;53.864;27.676;2023-08-12T09:55:24;99479.41;;;26.03;42.32
64679;BME280;51094;53.864;27.676;2023-08-12T09:57:52;99478.63;;;26.15;43.54
64679;BME280;51094;53.864;27.676;2023-08-12T10:00:23;99482.34;;;26.47;42.85
64679;BME280;51094;53.864;27.676;2023-08-12T10:02:52;99340.25;;;25.74;41.25
64679;BME280;51094;53.864;27.676;2023-08-12T10:05:27;99499.78;;;26.63;40.57
64679;BME280;51094;53.864;27.676;2023-08-12T10:07:54;99470.03;;;26.53;40.50
64679;BME280;51094;53.864;27.676;2023-08-12T10:10:22;99480.69;;;26.79;39.95
64679;BME280;51094;53.864;27.676;2023-08-12T10:12:49;99447.69;;;26.61;38.89
64679;BME280;51094;53.864;27.676;2023-08-12T10:15:17;99404.41;;;26.59;40.40
64679;BME280;51094;53.864;27.676;2023-08-12T10:17:43;99448.38;;;27.27;41.30
64679;BME280;51094;53.864;27.676;2023-08-12T10:20:17;99476.53;;;27.16;38.82
64679;BME280;51094;53.864;27.676;2023-08-12T10:22:46;99419.91;;;26.88;38.95
64679;BME280;51094;53.864;27.676;2023-08-12T10:25:13;99471.13;;;27.30;39.51
64679;BME280;51094;53.864;27.676;2023-08-12T10:27:41;99476.63;;;27.41;38.95
64679;BME280;51094;53.864;27.676;2023-08-12T10:30:08;99461.06;;;27.76;38.67
64679;BME280;51094;53.864;27.676;2023-08-12T10:32:36;99431.06;;;27.74;38.11
64679;BME280;51094;53.864;27.676;2023-08-12T10:35:05;99472.94;;;27.87;37.25
64679;BME280;51094;53.864;27.676;2023-08-12T10:37:33;99472.16;;;28.11;38.01
64679;BME280;51094;53.864;27.676;2023-08-12T10:40:04;99394.53;;;28.25;37.45
64679;BME280;51094;53.864;27.676;2023-08-12T10:42:42;99437.13;;;29.61;35.60
64679;BME280;51094;53.864;27.676;2023-08-12T10:45:14;99424.19;;;29.99;36.69
64679;BME280;51094;53.864;27.676;2023-08-12T10:48:17;99313.94;;;29.12;35.85
64679;BME280;51094;53.864;27.676;2023-08-12T10:50:52;99429.16;;;29.84;35.44
64679;BME280;51094;53.864;27.676;2023-08-12T10:53:27;99484.94;;;30.05;34.90
64679;BME280;51094;53.864;27.676;2023-08-12T10:56:00;99493.78;;;30.48;34.75
64679;BME280;51094;53.864;27.676;2023-08-12T10:59:01;99495.91;;;30.81;34.90
64679;BME280;51094;53.864;27.676;2023-08-12T11:01:22;99471.25;;;30.37;34.13
64679;BME280;51094;53.864;27.676;2023-08-12T11:03:49;99480.81;;;29.61;34.50
64679;BME280;51094;53.864;27.676;2023-08-12T11:06:19;99441.19;;;28.54;34.93
64679;BME280;51094;53.864;27.676;2023-08-12T11:08:47;99451.47;;;28.32;35.68
64679;BME280;51094;53.864;27.676;2023-08-12T11:11:22;99469.31;;;28.06;36.21
64679;BME280;51094;53.864;27.676;2023-08-12T11:13:58;99473.34;;;28.47;37.13
64679;BME280;51094;53.864;27.676;2023-08-12T11:16:35;99300.75;;;28.26;35.83
64679;BME280;51094;53.864;27.676;2023-08-12T11:19:03;99469.66;;;28.91;35.30
64679;BME280;51094;53.864;27.676;2023-08-12T11:21:31;99474.06;;;28.36;35.89
64679;BME280;51094;53.864;27.676;2023-08-12T11:23:59;99448.22;;;27.54;35.99
64679;BME280;51094;53.864;27.676;2023-08-12T11:26:26;99444.53;;;28.67;36.13
64679;BME280;51094;53.864;27.676;2023-08-12T11:28:53;99399.59;;;29.12;34.56
64679;BME280;51094;53.864;27.676;2023-08-12T11:31:21;99461.19;;;29.79;34.49
64679;BME280;51094;53.864;27.676;2023-08-12T11:33:49;99436.47;;;29.47;34.24
64679;BME280;51094;53.864;27.676;2023-08-12T11:36:16;99417.72;;;30.19;33.82
64679;BME280;51094;53.864;27.676;2023-08-12T11:38:43;99458.59;;;31.71;30.97
64679;BME280;51094;53.864;27.676;2023-08-12T11:41:10;99458.16;;;32.74;29.70
64679;BME280;51094;53.864;27.676;2023-08-12T11:43:37;99303.06;;;33.22;27.58
64679;BME280;51094;53.864;27.676;2023-08-12T11:46:04;99469.31;;;33.65;28.36
64679;BME280;51094;53.864;27.676;2023-08-12T11:48:32;99439.09;;;32.09;28.82
64679;BME280;51094;53.864;27.676;2023-08-12T11:50:59;99463.00;;;31.77;30.57
64679;BME280;51094;53.864;27.676;2023-08-12T11:53:26;99452.41;;;34.71;25.66
64679;BME280;51094;53.864;27.676;2023-08-12T11:55:53;99373.88;;;36.37;23.52
64679;BME280;51094;53.864;27.676;2023-08-12T11:58:20;99446.88;;;39.07;21.05
64679;BME280;51094;53.864;27.676;2023-08-12T12:00:49;99363.41;;;40.56;19.39
64679;BME280;51094;53.864;27.676;2023-08-12T12:03:16;99384.84;;;42.77;17.71
64679;BME280;51094;53.864;27.676;2023-08-12T12:05:45;99444.75;;;42.26;18.21
64679;BME280;51094;53.864;27.676;2023-08-12T12:08:13;99430.13;;;40.45;19.08
64679;BME280;51094;53.864;27.676;2023-08-12T12:10:40;99438.25;;;43.58;18.14
64679;BME280;51094;53.864;27.676;2023-08-12T12:13:07;99422.16;;;43.82;16.02
64679;BME280;51094;53.864;27.676;2023-08-12T12:15:41;99434.38;;;44.10;16.68
64679;BME280;51094;53.864;27.676;2023-08-12T12:18:10;99358.84;;;42.49;16.28
64679;BME280;51094;53.864;27.676;2023-08-12T12:23:21;99417.78;;;45.21;14.09
64679;BME280;51094;53.864;27.676;2023-08-12T12:25:48;99357.75;;;41.66;16.24
64679;BME280;51094;53.864;27.676;2023-08-12T12:28:15;99403.53;;;37.81;19.83
64679;BME280;51094;53.864;27.676;2023-08-12T12:30:42;99415.13;;;40.15;18.33
64679;BME280;51094;53.864;27.676;2023-08-12T12:33:09;99400.25;;;42.34;16.51
64679;BME280;51094;53.864;27.676;2023-08-12T12:35:36;99416.78;;;45.26;14.29
64679;BME280;51094;53.864;27.676;2023-08-12T12:38:21;99417.00;;;44.53;14.29
64679;BME280;51094;53.864;27.676;2023-08-12T12:40:48;99413.31;;;44.49;14.35
64679;BME280;51094;53.864;27.676;2023-08-12T12:43:15;99396.84;;;44.58;13.68
64679;BME280;51094;53.864;27.676;2023-08-12T12:45:41;99376.81;;;45.37;13.79
64679;BME280;51094;53.864;27.676;2023-08-12T12:48:08;99330.00;;;41.72;15.94
64679;BME280;51094;53.864;27.676;2023-08-12T12:50:35;99400.28;;;38.95;18.49
64679;BME280;51094;53.864;27.676;2023-08-12T12:53:04;99249.84;;;34.61;20.68
64679;BME280;51094;53.864;27.676;2023-08-12T12:55:31;99217.84;;;31.97;24.48
64679;BME280;51094;53.864;27.676;2023-08-12T12:57:58;99402.56;;;31.23;25.50
64679;BME280;51094;53.864;27.676;2023-08-12T13:00:25;99408.38;;;30.33;27.92